sensor_id;sensor_type;location;lat;lon;timestamp;P1;durP1;ratioP1;P2;durP2;ratioP2
74259;SDS011;62630;55.874;37.516;2022-09-24T00:01:31;3.33;;;2.00;;
74259;SDS011;62630;55.874;37.516;2022-09-24T00:04:00;3.47;;;2.00;;
74259;SDS011;62630;55.874;37.516;2022-09-24T00:06:33;2.63;;;1.90;;
74259;SDS011;62630;55.874;37.516;2022-09-24T00:09:01;3.80;;;1.83;;
74259;SDS011;62630;55.874;37.516;2022-09-24T00:11:30;2.25;;;1.77;;
74259;SDS011;62630;55.874;37.516;2022-09-24T00:13:57;2.95;;;1.73;;
74259;SDS011;62630;55.874;37.516;2022-09-24T00:16:26;3.38;;;1.80;;
74259;SDS011;62630;55.874;37.516;2022-09-24T00:18:54;3.35;;;1.77;;
74259;SDS011;62630;55.874;37.516;2022-09-24T00:21:32;2.13;;;1.23;;
74259;SDS011;62630;55.874;37.516;2022-09-24T00:24:00;2.03;;;1.52;;
74259;SDS011;62630;55.874;37.516;2022-09-24T00:26:28;9.05;;;1.75;;
74259;SDS011;62630;55.874;37.516;2022-09-24T00:29:14;2.25;;;1.42;;
74259;SDS011;62630;55.874;37.516;2022-09-24T00:31:41;1.83;;;1.23;;
74259;SDS011;62630;55.874;37.516;2022-09-24T00:34:07;1.55;;;1.38;;
74259;SDS011;62630;55.874;37.516;2022-09-24T00:36:32;2.33;;;1.45;;
74259;SDS011;62630;55.874;37.516;2022-09-24T00:38:59;1.88;;;1.27;;
74259;SDS011;62630;55.874;37.516;2022-09-24T00:41:25;3.85;;;1.23;;
74259;SDS011;62630;55.874;37.516;2022-09-24T00:43:55;4.50;;;1.30;;
74259;SDS011;62630;55.874;37.516;2022-09-24T00:46:26;3.05;;;1.20;;
74259;SDS011;62630;55.874;37.516;2022-09-24T00:49:14;2.15;;;1.10;;
74259;SDS011;62630;55.874;37.516;2022-09-24T00:51:43;2.30;;;1.10;;
74259;SDS011;62630;55.874;37.516;2022-09-24T00:54:11;2.60;;;1.25;;
74259;SDS011;62630;55.874;37.516;2022-09-24T00:56:47;5.00;;;1.38;;
74259;SDS011;62630;55.874;37.516;2022-09-24T00:59:17;1.58;;;1.23;;
74259;SDS011;62630;55.874;37.516;2022-09-24T01:01:47;1.08;;;0.90;;
74259;SDS011;62630;55.874;37.516;2022-09-24T01:04:15;1.27;;;0.90;;
74259;SDS011;62630;55.874;37.516;2022-09-24T01:06:45;1.42;;;0.90;;
74259;SDS011;62630;55.874;37.516;2022-09-24T01:09:11;4.88;;;1.00;;
74259;SDS011;62630;55.874;37.516;2022-09-24T01:31:30;1.15;;;0.90;;
74259;SDS011;62630;55.874;37.516;2022-09-24T01:34:10;2.15;;;0.77;;
74259;SDS011;62630;55.874;37.516;2022-09-24T01:36:41;1.35;;;0.80;;
74259;SDS011;62630;55.874;37.516;2022-09-24T01:39:09;0.98;;;0.80;;
74259;SDS011;62630;55.874;37.516;2022-09-24T01:41:35;0.88;;;0.80;;
74259;SDS011;62630;55.874;37.516;2022-09-24T01:44:04;1.15;;;0.50;;
74259;SDS011;62630;55.874;37.516;2022-09-24T01:46:31;0.82;;;0.55;;
74259;SDS011;62630;55.874;37.516;2022-09-24T01:48:57;1.25;;;0.63;;
74259;SDS011;62630;55.874;37.516;2022-09-24T01:51:24;0.65;;;0.60;;
74259;SDS011;62630;55.874;37.516;2022-09-24T01:56:26;1.00;;;0.50;;
74259;SDS011;62630;55.874;37.516;2022-09-24T01:59:03;0.95;;;0.47;;
74259;SDS011;62630;55.874;37.516;2022-09-24T02:01:35;0.98;;;0.40;;
74259;SDS011;62630;55.874;37.516;2022-09-24T02:04:11;0.80;;;0.43;;
74259;SDS011;62630;55.874;37.516;2022-09-24T02:06:51;0.90;;;0.50;;
74259;SDS011;62630;55.874;37.516;2022-09-24T02:09:35;1.67;;;0.63;;
74259;SDS011;62630;55.874;37.516;2022-09-24T02:12:12;0.45;;;0.40;;
74259;SDS011;62630;55.874;37.516;2022-09-24T02:14:53;1.88;;;0.38;;
74259;SDS011;62630;55.874;37.516;2022-09-24T02:17:27;0.98;;;0.40;;
74259;SDS011;62630;55.874;37.516;2022-09-24T02:19:57;2.05;;;0.40;;
74259;SDS011;62630;55.874;37.516;2022-09-24T02:22:25;2.05;;;0.40;;
74259;SDS011;62630;55.874;37.516;2022-09-24T02:24:52;0.57;;;0.40;;
74259;SDS011;62630;55.874;37.516;2022-09-24T02:27:21;1.98;;;0.60;;
74259;SDS011;62630;55.874;37.516;2022-09-24T02:29:51;0.60;;;0.30;;
74259;SDS011;62630;55.874;37.516;2022-09-24T02:32:17;0.70;;;0.30;;
74259;SDS011;62630;55.874;37.516;2022-09-24T02:34:46;0.55;;;0.22;;
74259;SDS011;62630;55.874;37.516;2022-09-24T02:37:16;0.57;;;0.30;;
74259;SDS011;62630;55.874;37.516;2022-09-24T02:39:41;0.63;;;0.38;;
74259;SDS011;62630;55.874;37.516;2022-09-24T02:42:08;0.45;;;0.30;;
74259;SDS011;62630;55.874;37.516;2022-09-24T02:44:37;0.47;;;0.40;;
74259;SDS011;62630;55.874;37.516;2022-09-24T02:47:03;1.15;;;0.38;;
74259;SDS011;62630;55.874;37.516;2022-09-24T02:51:56;0.77;;;0.28;;
74259;SDS011;62630;55.874;37.516;2022-09-24T02:54:21;1.58;;;0.40;;
74259;SDS011;62630;55.874;37.516;2022-09-24T02:56:48;0.80;;;0.30;;
74259;SDS011;62630;55.874;37.516;2022-09-24T02:59:13;0.20;;;0.20;;
74259;SDS011;62630;55.874;37.516;2022-09-24T03:01:39;3.17;;;0.32;;
74259;SDS011;62630;55.874;37.516;2022-09-24T03:04:04;0.40;;;0.28;;
74259;SDS011;62630;55.874;37.516;2022-09-24T03:06:30;0.30;;;0.20;;
74259;SDS011;62630;55.874;37.516;2022-09-24T03:08:55;0.30;;;0.20;;
74259;SDS011;62630;55.874;37.516;2022-09-24T03:11:21;0.60;;;0.17;;
74259;SDS011;62630;55.874;37.516;2022-09-24T03:13:47;0.60;;;0.60;;
74259;SDS011;62630;55.874;37.516;2022-09-24T03:16:13;0.45;;;0.20;;
74259;SDS011;62630;55.874;37.516;2022-09-24T03:18:39;0.80;;;0.30;;
74259;SDS011;62630;55.874;37.516;2022-09-24T03:23:40;1.52;;;0.30;;
74259;SDS011;62630;55.874;37.516;2022-09-24T03:26:06;0.50;;;0.20;;
74259;SDS011;62630;55.874;37.516;2022-09-24T03:28:32;0.40;;;0.30;;
74259;SDS011;62630;55.874;37.516;2022-09-24T03:30:57;0.57;;;0.28;;
74259;SDS011;62630;55.874;37.516;2022-09-24T03:38:30;0.10;;;0.10;;
74259;SDS011;62630;55.874;37.516;2022-09-24T03:40:56;0.50;;;0.20;;
74259;SDS011;62630;55.874;37.516;2022-09-24T03:43:22;0.30;;;0.30;;
74259;SDS011;62630;55.874;37.516;2022-09-24T03:45:49;0.60;;;0.30;;
74259;SDS011;62630;55.874;37.516;2022-09-24T03:48:16;0.55;;;0.40;;
74259;SDS011;62630;55.874;37.516;2022-09-24T03:50:42;1.08;;;0.30;;
74259;SDS011;62630;55.874;37.516;2022-09-24T03:53:08;0.68;;;0.22;;
74259;SDS011;62630;55.874;37.516;2022-09-24T03:55:34;0.60;;;0.40;;
74259;SDS011;62630;55.874;37.516;2022-09-24T03:58:01;0.20;;;0.13;;
74259;SDS011;62630;55.874;37.516;2022-09-24T04:00:31;1.08;;;0.35;;
74259;SDS011;62630;55.874;37.516;2022-09-24T04:02:58;0.35;;;0.10;;
74259;SDS011;62630;55.874;37.516;2022-09-24T04:05:24;0.35;;;0.30;;
74259;SDS011;62630;55.874;37.516;2022-09-24T04:07:51;2.53;;;0.30;;
74259;SDS011;62630;55.874;37.516;2022-09-24T04:10:16;0.82;;;0.20;;
74259;SDS011;62630;55.874;37.516;2022-09-24T04:12:42;0.43;;;0.40;;
74259;SDS011;62630;55.874;37.516;2022-09-24T04:15:10;0.85;;;0.20;;
74259;SDS011;62630;55.874;37.516;2022-09-24T04:17:39;1.05;;;0.47;;
74259;SDS011;62630;55.874;37.516;2022-09-24T04:20:06;0.88;;;0.50;;
74259;SDS011;62630;55.874;37.516;2022-09-24T04:22:33;0.90;;;0.40;;
74259;SDS011;62630;55.874;37.516;2022-09-24T04:24:58;1.90;;;0.70;;
74259;SDS011;62630;55.874;37.516;2022-09-24T04:27:24;2.53;;;0.70;;
74259;SDS011;62630;55.874;37.516;2022-09-24T04:29:52;1.90;;;0.70;;
74259;SDS011;62630;55.874;37.516;2022-09-24T04:32:18;2.70;;;0.65;;
74259;SDS011;62630;55.874;37.516;2022-09-24T04:34:45;2.17;;;0.40;;
74259;SDS011;62630;55.874;37.516;2022-09-24T04:37:11;1.00;;;0.40;;
74259;SDS011;62630;55.874;37.516;2022-09-24T04:39:36;0.57;;;0.38;;
74259;SDS011;62630;55.874;37.516;2022-09-24T04:42:02;0.73;;;0.30;;
74259;SDS011;62630;55.874;37.516;2022-09-24T04:44:27;0.77;;;0.30;;
74259;SDS011;62630;55.874;37.516;2022-09-24T04:46:54;0.70;;;0.20;;
74259;SDS011;62630;55.874;37.516;2022-09-24T04:49:26;1.85;;;0.10;;
74259;SDS011;62630;55.874;37.516;2022-09-24T04:51:54;0.05;;;0.05;;
74259;SDS011;62630;55.874;37.516;2022-09-24T04:54:22;0.70;;;0.40;;
74259;SDS011;62630;55.874;37.516;2022-09-24T04:56:49;1.08;;;0.20;;
74259;SDS011;62630;55.874;37.516;2022-09-24T04:59:15;1.02;;;0.25;;
74259;SDS011;62630;55.874;37.516;2022-09-24T05:01:40;1.33;;;0.17;;
74259;SDS011;62630;55.874;37.516;2022-09-24T05:04:07;0.63;;;0.20;;
74259;SDS011;62630;55.874;37.516;2022-09-24T05:06:33;0.52;;;0.30;;
74259;SDS011;62630;55.874;37.516;2022-09-24T05:09:03;0.10;;;0.10;;
74259;SDS011;62630;55.874;37.516;2022-09-24T05:14:10;0.60;;;0.30;;
74259;SDS011;62630;55.874;37.516;2022-09-24T05:16:37;0.20;;;0.20;;
74259;SDS011;62630;55.874;37.516;2022-09-24T05:19:02;0.45;;;0.20;;
74259;SDS011;62630;55.874;37.516;2022-09-24T05:21:29;0.73;;;0.20;;
74259;SDS011;62630;55.874;37.516;2022-09-24T05:23:55;0.43;;;0.22;;
74259;SDS011;62630;55.874;37.516;2022-09-24T05:26:20;0.75;;;0.30;;
74259;SDS011;62630;55.874;37.516;2022-09-24T05:29:04;1.02;;;0.40;;
74259;SDS011;62630;55.874;37.516;2022-09-24T05:31:30;0.75;;;0.32;;
74259;SDS011;62630;55.874;37.516;2022-09-24T05:33:55;2.22;;;0.50;;
74259;SDS011;62630;55.874;37.516;2022-09-24T05:36:20;2.08;;;0.28;;
74259;SDS011;62630;55.874;37.516;2022-09-24T05:38:46;0.20;;;0.20;;
74259;SDS011;62630;55.874;37.516;2022-09-24T05:41:12;0.22;;;0.22;;
74259;SDS011;62630;55.874;37.516;2022-09-24T05:43:37;0.28;;;0.28;;
74259;SDS011;62630;55.874;37.516;2022-09-24T05:46:05;0.35;;;0.20;;
74259;SDS011;62630;55.874;37.516;2022-09-24T05:48:32;0.38;;;0.30;;
74259;SDS011;62630;55.874;37.516;2022-09-24T05:50:59;0.75;;;0.40;;
74259;SDS011;62630;55.874;37.516;2022-09-24T05:53:25;0.30;;;0.30;;
74259;SDS011;62630;55.874;37.516;2022-09-24T05:55:51;1.08;;;0.43;;
74259;SDS011;62630;55.874;37.516;2022-09-24T05:58:16;0.55;;;0.32;;
74259;SDS011;62630;55.874;37.516;2022-09-24T06:00:42;0.43;;;0.30;;
74259;SDS011;62630;55.874;37.516;2022-09-24T06:03:10;0.93;;;0.30;;
74259;SDS011;62630;55.874;37.516;2022-09-24T06:05:37;0.70;;;0.50;;
74259;SDS011;62630;55.874;37.516;2022-09-24T06:08:07;0.30;;;0.30;;
74259;SDS011;62630;55.874;37.516;2022-09-24T06:10:32;1.00;;;0.40;;
74259;SDS011;62630;55.874;37.516;2022-09-24T06:12:58;0.80;;;0.30;;
74259;SDS011;62630;55.874;37.516;2022-09-24T06:15:23;0.88;;;0.38;;
74259;SDS011;62630;55.874;37.516;2022-09-24T06:17:54;0.85;;;0.40;;
74259;SDS011;62630;55.874;37.516;2022-09-24T06:20:20;1.15;;;0.30;;
74259;SDS011;62630;55.874;37.516;2022-09-24T06:22:46;0.50;;;0.50;;
74259;SDS011;62630;55.874;37.516;2022-09-24T06:25:12;1.02;;;0.50;;
74259;SDS011;62630;55.874;37.516;2022-09-24T06:27:38;2.15;;;0.52;;
74259;SDS011;62630;55.874;37.516;2022-09-24T06:30:03;3.38;;;0.40;;
74259;SDS011;62630;55.874;37.516;2022-09-24T06:32:29;0.95;;;0.50;;
74259;SDS011;62630;55.874;37.516;2022-09-24T06:34:55;0.20;;;0.20;;
74259;SDS011;62630;55.874;37.516;2022-09-24T06:37:20;0.25;;;0.10;;
74259;SDS011;62630;55.874;37.516;2022-09-24T06:39:46;1.75;;;0.85;;
74259;SDS011;62630;55.874;37.516;2022-09-24T06:42:12;0.43;;;0.30;;
74259;SDS011;62630;55.874;37.516;2022-09-24T06:44:37;0.50;;;0.15;;
74259;SDS011;62630;55.874;37.516;2022-09-24T06:47:03;1.08;;;0.50;;
74259;SDS011;62630;55.874;37.516;2022-09-24T06:49:28;0.75;;;0.30;;
74259;SDS011;62630;55.874;37.516;2022-09-24T06:51:54;1.00;;;0.40;;
74259;SDS011;62630;55.874;37.516;2022-09-24T06:54:22;0.82;;;0.30;;
74259;SDS011;62630;55.874;37.516;2022-09-24T06:56:48;0.73;;;0.40;;
74259;SDS011;62630;55.874;37.516;2022-09-24T06:59:15;1.25;;;0.43;;
74259;SDS011;62630;55.874;37.516;2022-09-24T07:01:40;1.20;;;0.30;;
74259;SDS011;62630;55.874;37.516;2022-09-24T07:04:06;0.30;;;0.25;;
74259;SDS011;62630;55.874;37.516;2022-09-24T07:06:33;0.43;;;0.20;;
74259;SDS011;62630;55.874;37.516;2022-09-24T07:09:18;2.13;;;0.40;;
74259;SDS011;62630;55.874;37.516;2022-09-24T07:11:44;0.95;;;0.50;;
74259;SDS011;62630;55.874;37.516;2022-09-24T07:14:10;0.75;;;0.45;;
74259;SDS011;62630;55.874;37.516;2022-09-24T07:16:37;0.20;;;0.20;;
74259;SDS011;62630;55.874;37.516;2022-09-24T07:19:02;1.52;;;0.45;;
74259;SDS011;62630;55.874;37.516;2022-09-24T07:21:28;0.32;;;0.30;;
74259;SDS011;62630;55.874;37.516;2022-09-24T07:23:53;0.43;;;0.30;;
74259;SDS011;62630;55.874;37.516;2022-09-24T07:26:19;2.38;;;0.57;;
74259;SDS011;62630;55.874;37.516;2022-09-24T07:28:44;2.67;;;0.40;;
74259;SDS011;62630;55.874;37.516;2022-09-24T07:31:10;3.03;;;0.40;;
74259;SDS011;62630;55.874;37.516;2022-09-24T07:33:35;0.65;;;0.38;;
74259;SDS011;62630;55.874;37.516;2022-09-24T07:36:05;2.80;;;0.60;;
74259;SDS011;62630;55.874;37.516;2022-09-24T07:38:31;1.10;;;0.50;;
74259;SDS011;62630;55.874;37.516;2022-09-24T07:40:57;0.52;;;0.30;;
74259;SDS011;62630;55.874;37.516;2022-09-24T07:43:23;1.60;;;0.47;;
74259;SDS011;62630;55.874;37.516;2022-09-24T07:45:48;0.80;;;0.70;;
74259;SDS011;62630;55.874;37.516;2022-09-24T07:48:14;1.05;;;0.60;;
74259;SDS011;62630;55.874;37.516;2022-09-24T07:50:40;1.27;;;0.80;;
74259;SDS011;62630;55.874;37.516;2022-09-24T07:53:07;0.65;;;0.65;;
74259;SDS011;62630;55.874;37.516;2022-09-24T07:55:35;1.10;;;0.50;;
74259;SDS011;62630;55.874;37.516;2022-09-24T07:58:03;0.47;;;0.30;;
74259;SDS011;62630;55.874;37.516;2022-09-24T08:00:28;0.75;;;0.50;;
74259;SDS011;62630;55.874;37.516;2022-09-24T08:02:54;1.90;;;0.40;;
74259;SDS011;62630;55.874;37.516;2022-09-24T08:05:20;0.25;;;0.25;;
74259;SDS011;62630;55.874;37.516;2022-09-24T08:07:52;1.60;;;0.75;;
74259;SDS011;62630;55.874;37.516;2022-09-24T08:10:19;2.38;;;0.60;;
74259;SDS011;62630;55.874;37.516;2022-09-24T08:12:45;0.43;;;0.40;;
74259;SDS011;62630;55.874;37.516;2022-09-24T08:15:10;0.35;;;0.35;;
74259;SDS011;62630;55.874;37.516;2022-09-24T08:17:36;2.05;;;1.02;;
74259;SDS011;62630;55.874;37.516;2022-09-24T08:20:01;1.17;;;0.30;;
74259;SDS011;62630;55.874;37.516;2022-09-24T08:22:27;0.63;;;0.30;;
74259;SDS011;62630;55.874;37.516;2022-09-24T08:24:52;0.30;;;0.30;;
74259;SDS011;62630;55.874;37.516;2022-09-24T08:27:18;0.30;;;0.20;;
74259;SDS011;62630;55.874;37.516;2022-09-24T08:29:44;0.40;;;0.40;;
74259;SDS011;62630;55.874;37.516;2022-09-24T08:32:10;0.60;;;0.47;;
74259;SDS011;62630;55.874;37.516;2022-09-24T08:34:37;1.10;;;0.50;;
74259;SDS011;62630;55.874;37.516;2022-09-24T08:37:05;0.98;;;0.70;;
74259;SDS011;62630;55.874;37.516;2022-09-24T08:39:31;1.58;;;0.68;;
74259;SDS011;62630;55.874;37.516;2022-09-24T08:42:04;1.83;;;0.50;;
74259;SDS011;62630;55.874;37.516;2022-09-24T08:44:36;1.45;;;0.68;;
74259;SDS011;62630;55.874;37.516;2022-09-24T08:50:24;0.70;;;0.63;;
74259;SDS011;62630;55.874;37.516;2022-09-24T08:53:05;1.83;;;0.55;;
74259;SDS011;62630;55.874;37.516;2022-09-24T09:06:09;0.98;;;0.60;;
74259;SDS011;62630;55.874;37.516;2022-09-24T09:11:19;1.23;;;0.50;;
74259;SDS011;62630;55.874;37.516;2022-09-24T09:13:51;0.43;;;0.38;;
74259;SDS011;62630;55.874;37.516;2022-09-24T09:16:24;1.35;;;0.57;;
74259;SDS011;62630;55.874;37.516;2022-09-24T09:18:54;0.80;;;0.60;;
74259;SDS011;62630;55.874;37.516;2022-09-24T09:24:21;0.73;;;0.63;;
74259;SDS011;62630;55.874;37.516;2022-09-24T09:26:52;4.95;;;0.50;;
74259;SDS011;62630;55.874;37.516;2022-09-24T09:29:23;1.90;;;0.68;;
74259;SDS011;62630;55.874;37.516;2022-09-24T09:31:57;3.20;;;0.40;;
74259;SDS011;62630;55.874;37.516;2022-09-24T09:34:57;3.72;;;0.73;;
74259;SDS011;62630;55.874;37.516;2022-09-24T09:37:53;3.53;;;0.77;;
74259;SDS011;62630;55.874;37.516;2022-09-24T09:40:36;2.63;;;0.70;;
74259;SDS011;62630;55.874;37.516;2022-09-24T09:43:10;1.05;;;0.70;;
74259;SDS011;62630;55.874;37.516;2022-09-24T09:48:24;1.92;;;0.80;;
74259;SDS011;62630;55.874;37.516;2022-09-24T09:51:00;0.73;;;0.45;;
74259;SDS011;62630;55.874;37.516;2022-09-24T09:53:29;1.02;;;0.50;;
74259;SDS011;62630;55.874;37.516;2022-09-24T09:56:01;0.85;;;0.60;;
74259;SDS011;62630;55.874;37.516;2022-09-24T09:58:30;1.15;;;0.50;;
74259;SDS011;62630;55.874;37.516;2022-09-24T10:03:34;0.77;;;0.65;;
74259;SDS011;62630;55.874;37.516;2022-09-24T10:06:11;1.05;;;0.50;;
74259;SDS011;62630;55.874;37.516;2022-09-24T10:08:38;0.95;;;0.32;;
74259;SDS011;62630;55.874;37.516;2022-09-24T10:11:04;1.23;;;0.77;;
74259;SDS011;62630;55.874;37.516;2022-09-24T10:13:31;0.50;;;0.32;;
74259;SDS011;62630;55.874;37.516;2022-09-24T10:18:42;0.82;;;0.43;;
74259;SDS011;62630;55.874;37.516;2022-09-24T10:21:31;2.25;;;1.00;;
74259;SDS011;62630;55.874;37.516;2022-09-24T10:23:59;0.88;;;0.50;;
74259;SDS011;62630;55.874;37.516;2022-09-24T10:26:40;1.35;;;0.60;;
74259;SDS011;62630;55.874;37.516;2022-09-24T10:29:15;0.77;;;0.60;;
74259;SDS011;62630;55.874;37.516;2022-09-24T10:32:04;1.17;;;0.88;;
74259;SDS011;62630;55.874;37.516;2022-09-24T10:34:31;2.35;;;1.20;;
74259;SDS011;62630;55.874;37.516;2022-09-24T10:37:01;2.85;;;1.00;;
74259;SDS011;62630;55.874;37.516;2022-09-24T10:39:28;1.23;;;0.95;;
74259;SDS011;62630;55.874;37.516;2022-09-24T10:41:55;0.90;;;0.63;;
74259;SDS011;62630;55.874;37.516;2022-09-24T10:44:22;1.88;;;1.05;;
74259;SDS011;62630;55.874;37.516;2022-09-24T10:52:34;1.00;;;0.80;;
74259;SDS011;62630;55.874;37.516;2022-09-24T11:08:59;1.73;;;0.70;;
74259;SDS011;62630;55.874;37.516;2022-09-24T11:20:56;2.72;;;0.88;;
74259;SDS011;62630;55.874;37.516;2022-09-24T11:23:30;1.48;;;0.77;;
74259;SDS011;62630;55.874;37.516;2022-09-24T11:30:18;0.40;;;0.40;;
74259;SDS011;62630;55.874;37.516;2022-09-24T11:57:12;0.85;;;0.55;;
74259;SDS011;62630;55.874;37.516;2022-09-24T11:59:53;1.90;;;0.85;;
74259;SDS011;62630;55.874;37.516;2022-09-24T12:02:30;1.60;;;0.77;;
74259;SDS011;62630;55.874;37.516;2022-09-24T12:08:11;2.97;;;0.98;;
74259;SDS011;62630;55.874;37.516;2022-09-24T12:10:58;1.15;;;0.70;;
74259;SDS011;62630;55.874;37.516;2022-09-24T12:13:39;0.60;;;0.60;;
74259;SDS011;62630;55.874;37.516;2022-09-24T12:16:11;1.00;;;0.40;;
74259;SDS011;62630;55.874;37.516;2022-09-24T12:18:45;2.30;;;0.60;;
74259;SDS011;62630;55.874;37.516;2022-09-24T12:21:17;0.65;;;0.50;;
74259;SDS011;62630;55.874;37.516;2022-09-24T12:23:48;2.20;;;0.95;;
74259;SDS011;62630;55.874;37.516;2022-09-24T12:28:58;2.28;;;1.08;;
74259;SDS011;62630;55.874;37.516;2022-09-24T12:37:40;2.92;;;0.90;;
74259;SDS011;62630;55.874;37.516;2022-09-24T12:42:58;2.42;;;1.50;;
74259;SDS011;62630;55.874;37.516;2022-09-24T12:45:27;2.63;;;1.10;;
74259;SDS011;62630;55.874;37.516;2022-09-24T12:47:57;1.85;;;0.68;;
74259;SDS011;62630;55.874;37.516;2022-09-24T12:50:28;7.28;;;2.63;;
74259;SDS011;62630;55.874;37.516;2022-09-24T12:52:56;3.45;;;1.77;;
74259;SDS011;62630;55.874;37.516;2022-09-24T12:55:23;3.60;;;1.40;;
74259;SDS011;62630;55.874;37.516;2022-09-24T13:02:59;1.42;;;0.82;;
74259;SDS011;62630;55.874;37.516;2022-09-24T13:05:28;1.23;;;0.70;;
74259;SDS011;62630;55.874;37.516;2022-09-24T13:07:59;1.63;;;0.98;;
74259;SDS011;62630;55.874;37.516;2022-09-24T13:10:32;2.47;;;0.73;;
74259;SDS011;62630;55.874;37.516;2022-09-24T13:15:40;2.35;;;0.80;;
74259;SDS011;62630;55.874;37.516;2022-09-24T13:20:38;3.45;;;1.02;;
74259;SDS011;62630;55.874;37.516;2022-09-24T13:25:38;2.35;;;0.70;;
74259;SDS011;62630;55.874;37.516;2022-09-24T13:33:56;1.17;;;0.90;;
74259;SDS011;62630;55.874;37.516;2022-09-24T13:36:32;1.27;;;0.88;;
74259;SDS011;62630;55.874;37.516;2022-09-24T13:44:39;1.50;;;0.75;;
74259;SDS011;62630;55.874;37.516;2022-09-24T13:50:43;0.40;;;0.30;;
74259;SDS011;62630;55.874;37.516;2022-09-24T13:53:15;2.42;;;0.90;;
74259;SDS011;62630;55.874;37.516;2022-09-24T13:55:48;1.48;;;0.88;;
74259;SDS011;62630;55.874;37.516;2022-09-24T13:58:29;1.73;;;0.85;;
74259;SDS011;62630;55.874;37.516;2022-09-24T14:00:56;3.67;;;0.80;;
74259;SDS011;62630;55.874;37.516;2022-09-24T14:03:25;1.15;;;0.80;;
74259;SDS011;62630;55.874;37.516;2022-09-24T14:06:00;1.17;;;0.90;;
74259;SDS011;62630;55.874;37.516;2022-09-24T14:08:34;3.47;;;0.80;;
74259;SDS011;62630;55.874;37.516;2022-09-24T14:11:19;1.13;;;0.77;;
74259;SDS011;62630;55.874;37.516;2022-09-24T14:13:50;2.83;;;0.70;;
74259;SDS011;62630;55.874;37.516;2022-09-24T14:16:24;7.22;;;1.10;;
74259;SDS011;62630;55.874;37.516;2022-09-24T14:19:03;1.85;;;1.20;;
74259;SDS011;62630;55.874;37.516;2022-09-24T14:29:43;1.55;;;0.90;;
74259;SDS011;62630;55.874;37.516;2022-09-24T14:35:11;2.15;;;1.23;;
74259;SDS011;62630;55.874;37.516;2022-09-24T14:37:49;2.40;;;0.75;;
74259;SDS011;62630;55.874;37.516;2022-09-24T14:40:21;4.65;;;1.10;;
74259;SDS011;62630;55.874;37.516;2022-09-24T14:42:55;3.50;;;0.70;;
74259;SDS011;62630;55.874;37.516;2022-09-24T14:45:25;3.47;;;1.20;;
74259;SDS011;62630;55.874;37.516;2022-09-24T14:48:01;4.78;;;1.00;;
74259;SDS011;62630;55.874;37.516;2022-09-24T14:53:00;2.45;;;1.15;;
74259;SDS011;62630;55.874;37.516;2022-09-24T14:55:47;4.03;;;1.10;;
74259;SDS011;62630;55.874;37.516;2022-09-24T15:00:59;3.58;;;1.42;;
74259;SDS011;62630;55.874;37.516;2022-09-24T15:03:27;3.15;;;1.30;;
74259;SDS011;62630;55.874;37.516;2022-09-24T15:06:02;2.92;;;1.27;;
74259;SDS011;62630;55.874;37.516;2022-09-24T15:08:29;2.58;;;1.13;;
74259;SDS011;62630;55.874;37.516;2022-09-24T15:13:28;4.93;;;1.90;;
74259;SDS011;62630;55.874;37.516;2022-09-24T15:18:58;3.33;;;1.10;;
74259;SDS011;62630;55.874;37.516;2022-09-24T15:21:37;3.85;;;0.88;;
74259;SDS011;62630;55.874;37.516;2022-09-24T15:24:03;2.63;;;1.13;;
74259;SDS011;62630;55.874;37.516;2022-09-24T15:26:29;6.03;;;1.92;;
74259;SDS011;62630;55.874;37.516;2022-09-24T15:28:57;3.60;;;1.63;;
74259;SDS011;62630;55.874;37.516;2022-09-24T15:31:23;4.30;;;1.50;;
74259;SDS011;62630;55.874;37.516;2022-09-24T15:33:52;2.53;;;1.13;;
74259;SDS011;62630;55.874;37.516;2022-09-24T15:36:18;3.42;;;1.65;;
74259;SDS011;62630;55.874;37.516;2022-09-24T15:38:51;4.38;;;1.52;;
74259;SDS011;62630;55.874;37.516;2022-09-24T15:41:22;4.35;;;1.70;;
74259;SDS011;62630;55.874;37.516;2022-09-24T15:43:47;3.22;;;1.52;;
74259;SDS011;62630;55.874;37.516;2022-09-24T15:46:13;2.00;;;1.23;;
74259;SDS011;62630;55.874;37.516;2022-09-24T15:48:38;2.80;;;1.40;;
74259;SDS011;62630;55.874;37.516;2022-09-24T15:51:04;5.68;;;1.58;;
74259;SDS011;62630;55.874;37.516;2022-09-24T15:53:33;3.25;;;1.20;;
74259;SDS011;62630;55.874;37.516;2022-09-24T15:56:00;5.30;;;1.50;;
74259;SDS011;62630;55.874;37.516;2022-09-24T15:58:27;1.92;;;1.20;;
74259;SDS011;62630;55.874;37.516;2022-09-24T16:00:53;2.15;;;1.23;;
74259;SDS011;62630;55.874;37.516;2022-09-24T16:03:26;4.70;;;1.27;;
74259;SDS011;62630;55.874;37.516;2022-09-24T16:05:53;4.60;;;1.70;;
74259;SDS011;62630;55.874;37.516;2022-09-24T16:08:19;4.75;;;1.80;;
74259;SDS011;62630;55.874;37.516;2022-09-24T16:10:51;6.03;;;1.67;;
74259;SDS011;62630;55.874;37.516;2022-09-24T16:13:19;4.40;;;1.73;;
74259;SDS011;62630;55.874;37.516;2022-09-24T16:15:50;4.28;;;1.70;;
74259;SDS011;62630;55.874;37.516;2022-09-24T16:18:16;5.03;;;1.60;;
74259;SDS011;62630;55.874;37.516;2022-09-24T16:20:50;1.98;;;1.00;;
74259;SDS011;62630;55.874;37.516;2022-09-24T16:23:18;1.83;;;1.13;;
74259;SDS011;62630;55.874;37.516;2022-09-24T16:25:54;1.85;;;0.90;;
74259;SDS011;62630;55.874;37.516;2022-09-24T16:28:22;1.98;;;0.82;;
74259;SDS011;62630;55.874;37.516;2022-09-24T16:30:48;2.13;;;1.00;;
74259;SDS011;62630;55.874;37.516;2022-09-24T16:33:14;2.45;;;1.00;;
74259;SDS011;62630;55.874;37.516;2022-09-24T16:35:39;3.70;;;1.02;;
74259;SDS011;62630;55.874;37.516;2022-09-24T16:38:05;1.23;;;0.80;;
74259;SDS011;62630;55.874;37.516;2022-09-24T16:40:31;1.05;;;0.80;;
74259;SDS011;62630;55.874;37.516;2022-09-24T16:42:56;2.25;;;1.23;;
74259;SDS011;62630;55.874;37.516;2022-09-24T16:45:23;3.80;;;1.60;;
74259;SDS011;62630;55.874;37.516;2022-09-24T16:47:48;2.78;;;1.30;;
74259;SDS011;62630;55.874;37.516;2022-09-24T16:50:14;2.92;;;1.33;;
74259;SDS011;62630;55.874;37.516;2022-09-24T16:52:40;1.58;;;1.17;;
74259;SDS011;62630;55.874;37.516;2022-09-24T16:55:08;2.47;;;0.75;;
74259;SDS011;62630;55.874;37.516;2022-09-24T16:57:35;4.63;;;1.60;;
74259;SDS011;62630;55.874;37.516;2022-09-24T17:00:02;1.73;;;0.80;;
74259;SDS011;62630;55.874;37.516;2022-09-24T17:02:31;3.60;;;1.52;;
74259;SDS011;62630;55.874;37.516;2022-09-24T17:04:57;2.17;;;1.10;;
74259;SDS011;62630;55.874;37.516;2022-09-24T17:07:22;3.10;;;1.25;;
74259;SDS011;62630;55.874;37.516;2022-09-24T17:09:48;2.13;;;1.00;;
74259;SDS011;62630;55.874;37.516;2022-09-24T17:12:32;3.00;;;1.23;;
74259;SDS011;62630;55.874;37.516;2022-09-24T17:14:58;3.38;;;1.30;;
74259;SDS011;62630;55.874;37.516;2022-09-24T17:17:26;1.95;;;1.55;;
74259;SDS011;62630;55.874;37.516;2022-09-24T17:19:52;1.45;;;0.80;;
74259;SDS011;62630;55.874;37.516;2022-09-24T17:22:21;0.70;;;0.57;;
74259;SDS011;62630;55.874;37.516;2022-09-24T17:24:46;1.52;;;0.90;;
74259;SDS011;62630;55.874;37.516;2022-09-24T17:27:12;0.90;;;0.50;;
74259;SDS011;62630;55.874;37.516;2022-09-24T17:29:38;1.10;;;0.80;;
74259;SDS011;62630;55.874;37.516;2022-09-24T17:32:04;1.27;;;0.80;;
74259;SDS011;62630;55.874;37.516;2022-09-24T17:34:29;0.93;;;0.63;;
74259;SDS011;62630;55.874;37.516;2022-09-24T17:36:55;1.02;;;0.70;;
74259;SDS011;62630;55.874;37.516;2022-09-24T17:39:24;1.25;;;0.80;;
74259;SDS011;62630;55.874;37.516;2022-09-24T17:41:51;0.82;;;0.70;;
74259;SDS011;62630;55.874;37.516;2022-09-24T17:44:17;1.52;;;0.95;;
74259;SDS011;62630;55.874;37.516;2022-09-24T17:46:43;1.45;;;0.90;;
74259;SDS011;62630;55.874;37.516;2022-09-24T17:49:09;2.15;;;0.90;;